Columbine Hills, CO

9:45 PM MDT on September 17, 2014 (GMT -0600)
Simms and Bowles | Change Station
CLOSE
Current Station
Personal Weather Station
Location: Littleton, CO
Elevation: 5830 ft
Nearby Weather Stations

Elev 5830 ft 39.61 °N, 105.13 °W | Updated 5 seconds ago

Partly Cloudy
Partly Cloudy
65.4 °F
Feels Like 65.4 °F
N
0.0
Wind Variable Wind from West
Gusts 3.0 mph

Today
High -- | Low -- °F
--% Chance of Precip.
Yesterday
High -- | Low -- °F
Precip. -- in
6:43 AM 7:05 PM
Waning Crescent, 30% visible
Pressure 29.91 in
Visibility 10.0 miles
Clouds Scattered Clouds 11000 ft
Dew Point 46 °F
Humidity 50%
Rainfall 0.00 in
Snow Depth 0 in , 187 in , 0 in
UV 0 out of 12
Pollen 7.70 out of 12
Ozone Good
PM2.5 Good
Flu Activity Not available.
METAR KAPA 180253Z 27005KT 10SM SCT110 22/05 A3012 RMK AO2 SLP129 60000 T02170050 53022

More Conditions Fewer Conditions

Pressure 29.91 in
Visibility 10.0 miles
Clouds Scattered Clouds 11000 ft
Dew Point 46 °F
Humidity 50%
Rainfall 0.00 in
Snow Depth 0 in , 187 in , 0 in
UV 0 out of 12
Pollen 7.70 out of 12
Ozone Good
PM2.5 Good
Flu Activity Not available.
METAR KAPA 180253Z 27005KT 10SM SCT110 22/05 A3012 RMK AO2 SLP129 60000 T02170050 53022

More Conditions Fewer Conditions

10-Day Weather Forecast

Almanac

Astronomy

Sep. 17, 2014 Rise Set
Actual Time 6:43 AM MDT 7:05 PM MDT
Civil Twilight 6:16 AM MDT 7:32 PM MDT
Nautical Twilight 5:44 AM MDT 8:04 PM MDT
Astronomical Twilight 5:12 AM MDT 8:36 PM MDT
Moon 12:46 AM MDT (9/17) 3:16 PM MDT (9/17)
Length of Visible Light 13h 16m
Length of Day
12h 22m
Tomorrow will be 2m 33s shorter.
Waning Crescent, 30% of the Moon is Illuminated
Today
Waning Crescent
Sep 24
New
Oct 1
First Quarter
Oct 8
Full
Oct 15
Last Quarter

Today's Extremes

State Highs State Lows

Community

WunderPhotos

Upload Photos

1,754,283 photos uploaded!

Nearby

Air Quality

  Air Quality AQ Index Pollutant
Yesterday Moderate
OZONE
Yesterday Good
PM10
Current Good
OZONE
Current Good
PM2.5
Wednesday Moderate
OZONE
Wednesday Good
PM2.5
Thursday Good
OZONE
Thursday Good
PM2.5

Snow Depth

Station Depth Elevation
Never Summer 0 in 10280 ft
Independence Pass 187 in 10600 ft
Copper Mountain 0 in 10500 ft
Medano Pass 0 in 9620 ft
Schofield Pass 0 in 10700 ft

Earthquake Activity

City Distance Mag. Time & Date
No recent earthquake activity has been reported nearby.
Minimum magnitude displayed is 2.5.

Coastal Water Temperatures

Place Temperature
No Stations Reporting

Nearby Weather Stations